createdAt,value
2022-08-21T00:01:41.255Z,99.90
2022-08-21T00:04:22.514Z,99.90
2022-08-21T00:07:13.006Z,99.90
2022-08-21T00:09:54.400Z,99.90
2022-08-21T00:12:32.067Z,99.90
2022-08-21T00:15:02.157Z,99.90
2022-08-21T00:17:34.424Z,99.90
2022-08-21T00:20:07.809Z,99.90
2022-08-21T00:22:37.982Z,99.90
2022-08-21T00:25:11.528Z,99.90
2022-08-21T00:27:47.875Z,99.90
2022-08-21T00:30:23.593Z,99.90
2022-08-21T00:32:57.273Z,99.90
2022-08-21T00:35:33.245Z,99.90
2022-08-21T00:38:05.760Z,99.90
2022-08-21T00:40:44.317Z,99.90
2022-08-21T00:43:21.509Z,99.90
2022-08-21T00:45:54.267Z,99.90
2022-08-21T00:48:29.862Z,99.90
2022-08-21T00:51:10.467Z,99.90
2022-08-21T00:53:42.163Z,99.90
2022-08-21T00:56:19.223Z,99.90
2022-08-21T00:58:59.568Z,99.90
2022-08-21T01:01:32.139Z,99.90
2022-08-21T01:04:08.919Z,99.90
2022-08-21T01:06:40.256Z,99.90
2022-08-21T01:09:20.830Z,99.90
2022-08-21T01:11:53.568Z,99.90
2022-08-21T01:14:39.042Z,99.90
2022-08-21T01:17:11.932Z,99.90
2022-08-21T01:19:41.809Z,99.90
2022-08-21T01:22:17.455Z,99.90
2022-08-21T01:24:51.424Z,99.90
2022-08-21T01:27:21.670Z,99.90
2022-08-21T01:29:58.150Z,99.90
2022-08-21T01:32:30.456Z,99.90
2022-08-21T01:35:00.121Z,99.90
2022-08-21T01:37:33.939Z,99.90
2022-08-21T01:40:15.277Z,99.90
2022-08-21T01:42:47.837Z,99.90
2022-08-21T01:45:28.284Z,99.90
2022-08-21T01:47:57.682Z,99.90
2022-08-21T01:50:27.110Z,99.90
2022-08-21T01:53:07.325Z,99.90
2022-08-21T01:55:36.819Z,99.90
2022-08-21T01:58:08.392Z,99.90
2022-08-21T02:00:43.855Z,99.90
2022-08-21T02:03:13.170Z,99.90
2022-08-21T02:05:55.356Z,99.90
2022-08-21T02:08:32.986Z,99.90
2022-08-21T02:11:02.632Z,99.90
2022-08-21T02:13:36.473Z,99.90
2022-08-21T02:16:11.659Z,99.90
2022-08-21T02:18:42.982Z,99.90
2022-08-21T02:21:14.280Z,99.90
2022-08-21T02:23:46.817Z,99.90
2022-08-21T02:26:16.827Z,99.90
2022-08-21T02:28:52.727Z,99.90
2022-08-21T02:31:22.814Z,99.90
2022-08-21T02:33:57.531Z,99.90
2022-08-21T02:36:29.410Z,99.90
2022-08-21T02:39:00.398Z,99.90
2022-08-21T02:41:32.661Z,99.90
2022-08-21T02:44:02.591Z,99.90
2022-08-21T02:46:35.908Z,99.90
2022-08-21T02:49:06.746Z,99.90
2022-08-21T02:51:39.266Z,99.90
2022-08-21T02:54:09.997Z,99.90
2022-08-21T02:56:39.597Z,99.90
2022-08-21T02:59:09.401Z,99.90
2022-08-21T03:01:44.501Z,99.90
2022-08-21T03:04:15.326Z,99.90
2022-08-21T03:06:45.766Z,99.90
2022-08-21T03:09:16.496Z,99.90
2022-08-21T03:11:45.900Z,99.90
2022-08-21T03:14:32.935Z,99.90
2022-08-21T03:17:03.205Z,99.90
2022-08-21T03:19:34.624Z,99.90
2022-08-21T03:22:05.477Z,99.90
2022-08-21T03:24:39.070Z,99.90
2022-08-21T03:27:13.873Z,99.90
2022-08-21T03:29:44.001Z,99.90
2022-08-21T03:32:13.758Z,99.90
2022-08-21T03:34:46.303Z,99.90
2022-08-21T03:37:20.725Z,99.90
2022-08-21T03:39:52.981Z,99.90
2022-08-21T03:42:25.285Z,99.90
2022-08-21T03:44:54.687Z,99.90
2022-08-21T03:47:26.620Z,99.90
2022-08-21T03:49:58.417Z,99.90
2022-08-21T03:52:29.017Z,99.90
2022-08-21T03:54:59.854Z,99.90
2022-08-21T03:57:29.149Z,99.90
2022-08-21T03:59:58.669Z,99.90
2022-08-21T04:02:32.330Z,99.90
2022-08-21T04:05:06.323Z,99.90
2022-08-21T04:07:35.764Z,99.90
2022-08-21T04:10:13.077Z,99.90
2022-08-21T04:12:45.150Z,99.90
2022-08-21T04:15:17.127Z,99.90
2022-08-21T04:17:50.452Z,99.90
2022-08-21T04:20:20.651Z,99.90
2022-08-21T04:22:50.065Z,99.90
2022-08-21T04:25:23.424Z,99.90
2022-08-21T04:27:54.982Z,99.90
2022-08-21T04:30:28.047Z,99.90
2022-08-21T04:33:00.418Z,99.90
2022-08-21T04:35:34.512Z,99.90
2022-08-21T04:38:06.286Z,99.90
2022-08-21T04:40:43.471Z,99.90
2022-08-21T04:43:17.910Z,99.90
2022-08-21T04:45:50.441Z,99.90
2022-08-21T04:48:23.808Z,99.90
2022-08-21T04:51:01.005Z,99.90
2022-08-21T04:53:40.965Z,99.90
2022-08-21T04:56:15.666Z,99.90
2022-08-21T04:58:48.770Z,99.90
2022-08-21T05:01:27.491Z,99.90
2022-08-21T05:04:01.146Z,99.90
2022-08-21T05:06:38.458Z,99.90
2022-08-21T05:09:10.745Z,99.90
2022-08-21T05:11:44.749Z,99.90
2022-08-21T05:14:16.036Z,99.90
2022-08-21T05:16:45.670Z,99.90
2022-08-21T05:19:20.116Z,99.90
2022-08-21T05:21:56.595Z,99.90
2022-08-21T05:24:26.758Z,99.90
2022-08-21T05:26:58.040Z,99.90
2022-08-21T05:29:32.741Z,99.90
2022-08-21T05:32:02.487Z,99.90
2022-08-21T05:34:31.886Z,99.90
2022-08-21T05:37:07.768Z,99.90
2022-08-21T05:40:04.547Z,99.90
2022-08-21T05:42:30.817Z,99.90
2022-08-21T05:45:03.590Z,99.90
2022-08-21T05:47:32.866Z,99.90
2022-08-21T05:50:05.874Z,99.90
2022-08-21T05:52:35.308Z,99.90
2022-08-21T05:55:23.715Z,99.90
2022-08-21T05:57:54.593Z,99.90
2022-08-21T06:00:24.607Z,99.90
2022-08-21T06:02:57.166Z,99.90
2022-08-21T06:05:36.827Z,99.90
2022-08-21T06:08:11.294Z,99.90
2022-08-21T06:10:41.540Z,99.90
2022-08-21T06:13:15.367Z,99.90
2022-08-21T06:15:46.896Z,99.90
2022-08-21T06:18:32.436Z,99.90
2022-08-21T06:21:03.204Z,99.90
2022-08-21T06:23:35.325Z,99.90
2022-08-21T06:28:53.195Z,99.90
2022-08-21T06:31:28.232Z,99.90
2022-08-21T06:34:01.299Z,99.90
2022-08-21T06:36:35.593Z,99.90
2022-08-21T06:39:16.334Z,99.90
2022-08-21T06:41:56.921Z,99.90
2022-08-21T06:44:29.805Z,99.90
2022-08-21T06:47:00.769Z,99.90
2022-08-21T06:49:30.294Z,99.90
2022-08-21T06:52:07.977Z,99.90
2022-08-21T06:54:37.616Z,99.90
2022-08-21T06:57:12.776Z,99.90
2022-08-21T06:59:44.946Z,99.90
2022-08-21T07:02:17.345Z,99.90
2022-08-21T07:04:47.030Z,99.90
2022-08-21T07:07:33.788Z,99.90
2022-08-21T07:10:03.734Z,99.90
2022-08-21T07:12:38.488Z,99.90
2022-08-21T07:15:27.602Z,99.90
2022-08-21T07:18:04.513Z,99.90
2022-08-21T07:20:44.754Z,99.90
2022-08-21T07:23:25.087Z,99.90
2022-08-21T07:25:58.293Z,99.90
2022-08-21T07:28:37.305Z,99.90
2022-08-21T07:31:15.151Z,99.90
2022-08-21T07:33:53.867Z,99.90
2022-08-21T07:36:29.024Z,99.90
2022-08-21T07:39:07.310Z,99.90
2022-08-21T07:41:44.393Z,99.90
2022-08-21T07:44:37.332Z,99.90
2022-08-21T07:47:41.787Z,99.90
2022-08-21T07:50:18.267Z,99.90
2022-08-21T07:52:48.718Z,99.90
2022-08-21T07:55:26.320Z,99.90
2022-08-21T07:57:57.970Z,99.90
2022-08-21T08:00:47.598Z,99.90
2022-08-21T08:03:20.538Z,99.90
2022-08-21T08:06:10.573Z,99.90
2022-08-21T08:08:46.043Z,99.90
2022-08-21T08:11:28.712Z,99.90
2022-08-21T08:14:05.620Z,99.90
2022-08-21T08:16:40.379Z,99.90
2022-08-21T08:22:05.328Z,99.90
2022-08-21T08:24:43.641Z,99.90
2022-08-21T08:27:21.796Z,99.90
2022-08-21T08:29:59.946Z,99.90
2022-08-21T08:32:29.954Z,99.90
2022-08-21T08:35:03.928Z,99.90
2022-08-21T08:37:40.754Z,99.90
2022-08-21T08:40:46.427Z,99.90
2022-08-21T08:43:25.068Z,99.90
2022-08-21T08:46:00.586Z,99.90
2022-08-21T08:48:53.399Z,99.90
2022-08-21T08:51:37.756Z,99.90
2022-08-21T08:54:12.575Z,99.90
2022-08-21T08:56:45.284Z,99.90
2022-08-21T09:02:21.471Z,99.90
2022-08-21T09:05:02.247Z,99.90
2022-08-21T09:07:41.495Z,99.90
2022-08-21T09:10:29.374Z,99.90
2022-08-21T09:13:11.369Z,99.90
2022-08-21T09:16:08.860Z,99.90
2022-08-21T09:19:01.785Z,99.90
2022-08-21T09:21:47.980Z,99.90
2022-08-21T09:24:37.675Z,99.90
2022-08-21T09:27:16.902Z,99.90
2022-08-21T09:29:52.370Z,99.90
2022-08-21T09:32:37.724Z,99.90
2022-08-21T09:35:17.309Z,99.90
2022-08-21T09:38:00.719Z,99.90
2022-08-21T09:40:47.286Z,99.90
2022-08-21T09:43:30.480Z,99.90
2022-08-21T09:46:11.523Z,99.90
2022-08-21T09:49:04.191Z,99.90
2022-08-21T09:52:05.291Z,99.90
2022-08-21T09:54:39.138Z,99.90
2022-08-21T09:57:46.708Z,99.90
2022-08-21T10:00:40.542Z,99.90
2022-08-21T10:03:23.459Z,99.90
2022-08-21T10:06:19.828Z,99.90
2022-08-21T10:09:21.339Z,99.90
2022-08-21T10:12:11.526Z,99.90
2022-08-21T10:14:59.322Z,99.90
2022-08-21T10:17:46.142Z,99.90
2022-08-21T10:20:27.280Z,99.90
2022-08-21T10:23:18.179Z,99.90
2022-08-21T10:26:13.546Z,99.90
2022-08-21T10:28:54.412Z,99.90
2022-08-21T10:31:43.370Z,99.90
2022-08-21T10:34:32.572Z,99.90
2022-08-21T10:37:16.029Z,99.90
2022-08-21T10:40:12.453Z,99.90
2022-08-21T10:43:01.983Z,99.90
2022-08-21T10:45:54.066Z,99.90
2022-08-21T10:48:32.736Z,99.90
2022-08-21T10:51:09.611Z,99.90
2022-08-21T10:53:57.216Z,99.90
2022-08-21T10:56:33.203Z,99.90
2022-08-21T10:59:24.465Z,99.90
2022-08-21T11:02:03.353Z,99.90
2022-08-21T11:04:51.153Z,99.90
2022-08-21T11:07:34.111Z,99.90
2022-08-21T11:10:23.010Z,99.90
2022-08-21T11:13:04.416Z,99.90
2022-08-21T11:15:48.486Z,99.90
2022-08-21T11:18:25.328Z,99.90
2022-08-21T11:21:21.108Z,99.90
2022-08-21T11:24:00.111Z,99.90
2022-08-21T11:26:40.437Z,99.90
2022-08-21T11:29:17.680Z,99.90
2022-08-21T11:32:04.220Z,99.90
2022-08-21T11:34:49.808Z,99.90
2022-08-21T11:37:44.284Z,99.90
2022-08-21T11:40:47.171Z,99.90
2022-08-21T11:43:29.050Z,99.90
2022-08-21T11:46:20.050Z,99.90
2022-08-21T11:49:02.896Z,99.90
2022-08-21T11:51:40.460Z,99.90
2022-08-21T11:54:32.911Z,99.90
2022-08-21T11:57:17.684Z,99.90
2022-08-21T11:59:54.388Z,99.90
2022-08-21T12:02:33.541Z,99.90
2022-08-21T12:05:22.710Z,99.90
2022-08-21T12:08:10.997Z,99.90
2022-08-21T12:10:44.679Z,99.90
2022-08-21T12:13:40.648Z,99.90
2022-08-21T12:16:17.684Z,99.90
2022-08-21T12:18:50.746Z,99.90
2022-08-21T12:21:36.444Z,99.90
2022-08-21T12:24:19.156Z,99.90
2022-08-21T12:27:21.431Z,99.90
2022-08-21T12:30:12.316Z,99.90
2022-08-21T12:32:57.720Z,99.90
2022-08-21T12:35:35.353Z,99.90
2022-08-21T12:38:12.200Z,99.90
2022-08-21T12:41:05.489Z,99.90
2022-08-21T12:43:43.790Z,99.70
2022-08-21T12:46:26.723Z,98.80
2022-08-21T12:49:29.257Z,98.50
2022-08-21T12:52:22.885Z,98.40
2022-08-21T12:54:52.502Z,98.60
2022-08-21T12:57:36.352Z,99.00
2022-08-21T13:00:29.395Z,99.00
2022-08-21T13:03:08.502Z,99.00
2022-08-21T13:05:48.826Z,98.70
2022-08-21T14:27:29.742Z,95.00
2022-08-21T14:30:06.838Z,95.80
2022-08-21T14:32:44.707Z,96.40
2022-08-21T14:35:18.903Z,96.20
2022-08-21T14:38:00.942Z,96.10
2022-08-21T14:40:35.269Z,96.00
2022-08-21T14:43:09.832Z,96.20
2022-08-21T14:45:42.942Z,96.10
2022-08-21T14:48:17.120Z,96.20
2022-08-21T14:50:47.488Z,96.50
2022-08-21T14:53:19.915Z,96.80
2022-08-21T14:56:09.110Z,96.00
2022-08-21T14:58:46.402Z,96.10
2022-08-21T15:01:21.870Z,96.40
2022-08-21T15:04:01.194Z,95.70
2022-08-21T15:06:30.838Z,94.60
2022-08-21T15:09:14.031Z,95.20
2022-08-21T15:11:48.185Z,94.80
2022-08-21T15:14:24.486Z,95.20
2022-08-21T15:17:00.149Z,94.30
2022-08-21T15:19:44.902Z,94.80
2022-08-21T15:22:27.540Z,95.20
2022-08-21T15:24:59.994Z,95.00
2022-08-21T15:27:29.530Z,94.20
2022-08-21T15:30:14.652Z,94.30
2022-08-21T15:32:45.511Z,93.50
2022-08-21T15:35:28.618Z,93.10
2022-08-21T15:38:00.864Z,92.60
2022-08-21T15:40:31.381Z,92.50
2022-08-21T15:43:07.709Z,92.60
2022-08-21T15:45:42.660Z,92.40
2022-08-21T15:48:20.935Z,92.30
2022-08-21T15:50:55.385Z,93.00
2022-08-21T15:53:29.341Z,92.10
2022-08-21T15:56:09.157Z,92.60
2022-08-21T15:58:44.559Z,92.40
2022-08-21T16:01:44.243Z,93.30
2022-08-21T16:04:33.206Z,93.40
2022-08-21T16:07:17.923Z,93.00
2022-08-21T16:09:57.889Z,93.10
2022-08-21T16:12:40.867Z,92.00
2022-08-21T16:15:20.585Z,92.20
2022-08-21T16:17:59.699Z,92.60
2022-08-21T16:20:44.997Z,92.20
2022-08-21T16:23:15.657Z,92.40
2022-08-21T16:25:45.657Z,92.20
2022-08-21T16:28:34.521Z,91.90
2022-08-21T16:31:06.940Z,91.50
2022-08-21T16:33:47.818Z,91.80
2022-08-21T16:36:18.082Z,92.30
2022-08-21T16:38:53.958Z,92.00
2022-08-21T16:41:29.599Z,92.00
2022-08-21T16:44:07.998Z,92.10
2022-08-21T16:46:42.206Z,92.30
2022-08-21T16:49:13.117Z,91.90
2022-08-21T16:51:49.175Z,92.10
2022-08-21T16:54:32.255Z,92.00
2022-08-21T16:57:09.758Z,92.50
2022-08-21T16:59:43.298Z,92.70
2022-08-21T17:02:23.736Z,92.30
2022-08-21T17:04:58.083Z,92.50
2022-08-21T17:07:37.149Z,92.70
2022-08-21T17:10:30.462Z,92.60
2022-08-21T17:13:10.676Z,92.20
2022-08-21T17:15:41.149Z,92.30
2022-08-21T17:18:13.692Z,92.50
2022-08-21T17:20:52.313Z,92.20
2022-08-21T17:23:49.319Z,92.40
2022-08-21T17:26:35.829Z,92.70
2022-08-21T17:29:17.043Z,93.10
2022-08-21T17:31:49.545Z,93.10
2022-08-21T17:34:19.207Z,92.80
2022-08-21T17:36:56.288Z,91.90
2022-08-21T17:39:31.333Z,92.50
2022-08-21T17:42:13.938Z,93.10
2022-08-21T17:44:56.093Z,92.90
2022-08-21T17:47:28.834Z,92.10
2022-08-21T17:50:08.662Z,92.00
2022-08-21T17:52:44.819Z,92.00
2022-08-21T17:55:31.486Z,92.20
2022-08-21T17:58:04.336Z,92.40
2022-08-21T18:00:42.607Z,92.50
2022-08-21T18:03:24.532Z,92.30
2022-08-21T18:06:00.214Z,92.70
2022-08-21T18:08:42.593Z,92.90
2022-08-21T18:11:23.651Z,93.20
2022-08-21T18:14:06.782Z,93.50
2022-08-21T18:16:48.670Z,93.50
2022-08-21T18:19:23.494Z,94.10
2022-08-21T18:22:04.289Z,94.10
2022-08-21T18:24:51.796Z,93.80
2022-08-21T18:27:37.297Z,94.20
2022-08-21T18:30:13.180Z,94.80
2022-08-21T18:32:48.445Z,94.90
2022-08-21T18:35:25.186Z,94.90
2022-08-21T18:37:59.270Z,95.20
2022-08-21T18:40:36.696Z,95.50
2022-08-21T18:43:21.340Z,95.60
2022-08-21T18:46:01.369Z,95.80
2022-08-21T18:48:38.125Z,96.10
2022-08-21T18:51:16.951Z,96.60
2022-08-21T18:56:58.613Z,97.20
2022-08-21T18:59:30.232Z,97.30
2022-08-21T19:02:09.580Z,97.80
2022-08-21T19:04:45.103Z,98.10
2022-08-21T19:07:16.550Z,98.30
2022-08-21T19:10:14.142Z,99.10
2022-08-21T19:12:50.639Z,99.30
2022-08-21T19:15:26.523Z,99.90
2022-08-21T19:18:11.768Z,99.90
2022-08-21T19:20:47.312Z,99.90
2022-08-21T19:23:35.559Z,99.90
2022-08-21T19:26:09.754Z,99.90
2022-08-21T19:28:54.327Z,99.90
2022-08-21T19:31:32.771Z,99.90
2022-08-21T19:34:19.348Z,99.90
2022-08-21T19:36:52.468Z,99.90
2022-08-21T19:39:40.397Z,99.90
2022-08-21T19:42:17.372Z,99.90
2022-08-21T19:47:56.442Z,99.90
2022-08-21T19:50:34.108Z,99.90
2022-08-21T19:53:11.943Z,99.90
2022-08-21T19:55:48.325Z,99.90
2022-08-21T19:58:44.726Z,99.90
2022-08-21T20:01:18.647Z,99.90
2022-08-21T20:06:45.903Z,99.90
2022-08-21T20:09:22.067Z,99.90
2022-08-21T20:12:14.697Z,99.90
2022-08-21T20:15:00.785Z,99.90
2022-08-21T20:17:39.313Z,99.90
2022-08-21T20:20:22.813Z,99.90
2022-08-21T20:23:10.635Z,99.90
2022-08-21T20:25:56.135Z,99.90
2022-08-21T20:28:28.524Z,99.90
2022-08-21T20:34:17.484Z,99.90
2022-08-21T20:36:58.406Z,99.90
2022-08-21T20:39:35.511Z,99.90
2022-08-21T20:42:12.470Z,99.90
2022-08-21T20:44:51.508Z,99.90
2022-08-21T20:47:34.061Z,99.90
2022-08-21T20:50:15.673Z,99.90
2022-08-21T20:52:47.260Z,99.90
2022-08-21T20:55:29.415Z,99.90
2022-08-21T20:58:12.651Z,99.90
2022-08-21T21:00:45.228Z,99.90
2022-08-21T21:03:37.487Z,99.90
2022-08-21T21:06:25.233Z,99.90
2022-08-21T21:09:02.407Z,99.90
2022-08-21T21:11:41.782Z,99.90
2022-08-21T21:14:27.007Z,99.90
2022-08-21T21:17:02.401Z,99.90
2022-08-21T21:19:40.695Z,99.90
2022-08-21T21:22:22.783Z,99.90
2022-08-21T21:25:11.103Z,99.90
2022-08-21T21:27:51.620Z,99.90
2022-08-21T21:30:37.459Z,99.90
2022-08-21T21:33:19.714Z,99.90
2022-08-21T21:36:06.728Z,99.90
2022-08-21T21:39:02.610Z,99.90
2022-08-21T21:41:50.490Z,99.90
2022-08-21T21:45:01.611Z,99.90
2022-08-21T21:47:45.998Z,99.90
2022-08-21T21:50:42.862Z,99.90
2022-08-21T21:53:38.738Z,99.90
2022-08-21T21:56:27.514Z,99.90
2022-08-21T21:59:25.046Z,99.90
2022-08-21T22:02:08.336Z,99.90
2022-08-21T22:04:51.074Z,99.90
2022-08-21T22:07:35.638Z,99.90
2022-08-21T22:10:30.727Z,99.90
2022-08-21T22:13:26.222Z,99.90
2022-08-21T22:15:58.863Z,99.90
2022-08-21T22:18:35.372Z,99.90
2022-08-21T22:21:24.170Z,99.90
2022-08-21T22:24:04.634Z,99.90
2022-08-21T22:26:48.615Z,99.90
2022-08-21T22:29:37.895Z,99.90
2022-08-21T22:32:10.767Z,99.90
2022-08-21T22:34:45.159Z,99.90
2022-08-21T22:37:40.408Z,99.90
2022-08-21T22:40:15.859Z,99.90
2022-08-21T22:42:58.400Z,99.90
2022-08-21T22:45:43.589Z,99.90
2022-08-21T22:48:28.230Z,99.90
2022-08-21T22:51:07.187Z,99.90
2022-08-21T22:53:39.112Z,99.90
2022-08-21T22:56:12.794Z,99.90
2022-08-21T22:59:02.995Z,99.90
2022-08-21T23:01:46.659Z,99.90
2022-08-21T23:04:22.095Z,99.90
2022-08-21T23:06:56.771Z,99.90
2022-08-21T23:09:38.095Z,99.90
2022-08-21T23:12:33.127Z,99.90
2022-08-21T23:15:08.774Z,99.90
2022-08-21T23:17:49.990Z,99.90
2022-08-21T23:20:24.741Z,99.90
2022-08-21T23:23:04.921Z,99.90
2022-08-21T23:26:04.847Z,99.90
2022-08-21T23:28:46.947Z,99.90
2022-08-21T23:31:26.664Z,99.90
2022-08-21T23:34:25.572Z,99.90
2022-08-21T23:37:48.450Z,99.90
2022-08-21T23:40:50.555Z,99.90
2022-08-21T23:43:50.945Z,99.90
2022-08-21T23:46:38.329Z,99.90
2022-08-21T23:49:21.768Z,99.90
2022-08-21T23:52:04.862Z,99.90
2022-08-21T23:54:48.917Z,99.90
2022-08-21T23:57:36.176Z,99.90
